createdAt,value
2023-02-11T00:00:23.919Z,73.21
2023-02-11T00:02:57.055Z,73.36
2023-02-11T00:05:30.179Z,73.34
2023-02-11T00:08:03.132Z,73.45
2023-02-11T00:10:36.288Z,73.71
2023-02-11T00:13:11.199Z,73.61
2023-02-11T00:15:44.812Z,74.10
2023-02-11T00:18:18.738Z,74.10
2023-02-11T00:20:51.925Z,73.60
2023-02-11T00:23:25.221Z,73.88
2023-02-11T00:25:58.080Z,74.00
2023-02-11T00:28:32.816Z,74.35
2023-02-11T00:31:09.125Z,74.19
2023-02-11T00:33:42.636Z,73.74
2023-02-11T00:36:17.280Z,73.57
2023-02-11T00:38:51.571Z,73.75
2023-02-11T00:41:24.487Z,73.69
2023-02-11T00:43:58.839Z,73.31
2023-02-11T00:46:32.146Z,73.92
2023-02-11T00:49:05.240Z,73.61
2023-02-11T00:51:38.164Z,74.09
2023-02-11T00:54:11.293Z,73.20
2023-02-11T00:56:45.054Z,73.54
2023-02-11T00:59:19.540Z,73.84
2023-02-11T01:01:52.630Z,73.88
2023-02-11T01:04:25.549Z,73.90
2023-02-11T01:06:58.536Z,73.71
2023-02-11T01:09:31.644Z,74.26
2023-02-11T01:12:05.464Z,74.10
2023-02-11T01:14:40.650Z,74.20
2023-02-11T01:17:14.025Z,74.14
2023-02-11T01:19:47.365Z,74.53
2023-02-11T01:22:20.316Z,74.16
2023-02-11T01:24:53.336Z,74.26
2023-02-11T01:27:26.321Z,73.88
2023-02-11T01:30:01.424Z,74.04
2023-02-11T01:32:35.100Z,73.24
2023-02-11T01:35:08.499Z,73.40
2023-02-11T01:37:42.019Z,72.73
2023-02-11T01:40:17.260Z,72.95
2023-02-11T01:42:51.202Z,72.84
2023-02-11T01:45:43.008Z,73.18
2023-02-11T01:48:19.286Z,74.62
2023-02-11T01:50:55.010Z,73.68
2023-02-11T01:53:46.147Z,73.22
2023-02-11T01:56:37.892Z,73.75
2023-02-11T01:59:13.804Z,72.96
2023-02-11T02:01:50.854Z,73.28
2023-02-11T02:04:31.282Z,73.25
2023-02-11T02:07:07.750Z,73.30
2023-02-11T02:09:41.436Z,73.56
2023-02-11T02:12:15.179Z,73.96
2023-02-11T02:14:48.631Z,73.17
2023-02-11T02:17:27.704Z,73.85
2023-02-11T02:20:16.327Z,73.91
2023-02-11T02:23:14.982Z,73.36
2023-02-11T02:26:06.572Z,73.24
2023-02-11T02:28:52.465Z,73.38
2023-02-11T02:31:30.752Z,73.62
2023-02-11T02:34:08.391Z,73.77
2023-02-11T02:36:45.055Z,74.21
2023-02-11T02:39:21.648Z,73.88
2023-02-11T02:41:55.590Z,73.90
2023-02-11T02:44:29.372Z,74.47
2023-02-11T02:47:02.656Z,74.05
2023-02-11T02:49:37.412Z,73.75
2023-02-11T02:52:28.221Z,74.20
2023-02-11T02:55:15.760Z,74.03
2023-02-11T02:57:57.535Z,74.04
2023-02-11T03:00:33.407Z,73.59
2023-02-11T03:03:10.939Z,73.63
2023-02-11T03:05:49.741Z,74.35
2023-02-11T03:08:26.216Z,74.35
2023-02-11T03:11:00.321Z,74.52
2023-02-11T03:13:35.166Z,74.72
2023-02-11T03:16:10.580Z,74.33
2023-02-11T03:18:45.403Z,74.20
2023-02-11T03:21:21.308Z,74.56
2023-02-11T03:23:56.468Z,75.51
2023-02-11T03:26:31.770Z,75.24
2023-02-11T03:29:09.928Z,73.88
2023-02-11T03:31:47.719Z,74.01
2023-02-11T03:34:24.699Z,75.02
2023-02-11T03:37:02.845Z,74.95
2023-02-11T03:39:38.058Z,75.11
2023-02-11T03:42:12.089Z,75.38
2023-02-11T03:44:47.388Z,75.22
2023-02-11T03:47:22.487Z,75.24
2023-02-11T03:49:56.733Z,75.23
2023-02-11T03:52:31.859Z,75.10
2023-02-11T03:55:08.510Z,75.00
2023-02-11T03:57:41.593Z,74.83
2023-02-11T04:00:15.492Z,73.99
2023-02-11T04:02:48.527Z,74.03
2023-02-11T04:05:21.581Z,74.01
2023-02-11T04:07:56.102Z,74.27
2023-02-11T04:10:29.583Z,74.23
2023-02-11T04:13:03.231Z,74.41
2023-02-11T04:15:37.658Z,75.17
2023-02-11T04:18:10.518Z,74.33
2023-02-11T04:20:43.702Z,73.97
2023-02-11T04:23:17.976Z,74.50
2023-02-11T04:25:52.089Z,74.21
2023-02-11T04:28:26.960Z,74.11
2023-02-11T04:31:00.044Z,75.26
2023-02-11T04:33:33.043Z,75.07
2023-02-11T04:36:06.353Z,74.61
2023-02-11T04:38:40.545Z,74.79
2023-02-11T04:41:14.327Z,74.17
2023-02-11T04:43:47.474Z,74.42
2023-02-11T04:46:20.652Z,74.25
2023-02-11T04:48:53.965Z,74.44
2023-02-11T04:51:26.850Z,74.70
2023-02-11T04:54:01.139Z,74.25
2023-02-11T04:56:34.170Z,74.36
2023-02-11T04:59:08.111Z,74.31
2023-02-11T05:01:41.700Z,73.84
2023-02-11T05:04:14.847Z,73.92
2023-02-11T05:06:47.824Z,73.60
2023-02-11T05:09:22.658Z,73.91
2023-02-11T05:11:56.715Z,74.22
2023-02-11T05:14:30.176Z,74.83
2023-02-11T05:17:03.900Z,74.74
2023-02-11T05:19:37.286Z,74.51
2023-02-11T05:22:10.098Z,74.99
2023-02-11T05:24:44.586Z,75.09
2023-02-11T05:27:17.561Z,74.97
2023-02-11T05:29:50.532Z,74.78
2023-02-11T05:32:23.484Z,75.05
2023-02-11T05:34:56.738Z,75.00
2023-02-11T05:37:30.047Z,74.68
2023-02-11T05:40:04.862Z,75.11
2023-02-11T05:42:39.683Z,74.91
2023-02-11T05:45:12.736Z,74.89
2023-02-11T05:47:45.681Z,75.14
2023-02-11T05:50:18.922Z,74.30
2023-02-11T05:52:52.193Z,74.64
2023-02-11T05:55:26.719Z,74.96
2023-02-11T05:57:59.766Z,74.57
2023-02-11T06:00:32.681Z,73.93
2023-02-11T06:03:05.630Z,74.32
2023-02-11T06:05:38.740Z,73.68
2023-02-11T06:08:12.509Z,74.77
2023-02-11T06:10:47.331Z,74.44
2023-02-11T06:13:20.347Z,74.05
2023-02-11T06:15:59.574Z,73.39
2023-02-11T06:18:33.667Z,73.13
2023-02-11T06:21:08.043Z,73.04
2023-02-11T06:23:41.205Z,73.16
2023-02-11T06:26:19.669Z,72.90
2023-02-11T06:28:52.571Z,72.80
2023-02-11T06:31:25.693Z,72.76
2023-02-11T06:33:59.328Z,72.38
2023-02-11T06:36:32.476Z,71.94
2023-02-11T06:39:06.030Z,71.99
2023-02-11T06:41:40.481Z,71.84
2023-02-11T06:44:13.803Z,71.92
2023-02-11T06:46:46.837Z,71.77
2023-02-11T06:49:19.908Z,71.26
2023-02-11T06:51:52.902Z,71.17
2023-02-11T06:54:26.015Z,71.55
2023-02-11T06:57:00.697Z,71.32
2023-02-11T06:59:34.012Z,70.72
2023-02-11T07:02:07.112Z,70.97
2023-02-11T07:04:40.116Z,70.60
2023-02-11T07:07:13.053Z,70.77
2023-02-11T07:09:46.132Z,70.97
2023-02-11T07:12:21.553Z,70.76
2023-02-11T07:14:56.965Z,71.13
2023-02-11T07:17:30.340Z,70.46
2023-02-11T07:20:03.406Z,70.52
2023-02-11T07:22:36.396Z,70.29
2023-02-11T07:25:09.468Z,69.93
2023-02-11T07:27:43.907Z,69.80
2023-02-11T07:30:17.040Z,69.30
2023-02-11T07:32:50.403Z,69.51
2023-02-11T07:35:23.622Z,69.63
2023-02-11T07:37:56.910Z,69.85
2023-02-11T07:40:31.686Z,69.58
2023-02-11T07:43:05.965Z,69.66
2023-02-11T07:45:39.809Z,69.46
2023-02-11T07:48:12.906Z,69.17
2023-02-11T07:50:46.333Z,68.38
2023-02-11T07:53:19.245Z,67.61
2023-02-11T07:55:52.366Z,67.11
2023-02-11T07:58:26.862Z,65.56
2023-02-11T08:01:02.210Z,64.55
2023-02-11T08:03:35.800Z,64.47
2023-02-11T08:06:11.088Z,64.24
2023-02-11T08:08:44.663Z,62.98
2023-02-11T08:11:18.838Z,62.67
2023-02-11T08:13:54.109Z,62.59
2023-02-11T08:16:28.503Z,63.94
2023-02-11T08:19:02.480Z,62.04
2023-02-11T08:21:35.990Z,61.72
2023-02-11T08:24:09.320Z,60.20
2023-02-11T08:26:42.120Z,59.23
2023-02-11T08:29:16.968Z,58.15
2023-02-11T08:31:50.308Z,57.26
2023-02-11T08:34:23.653Z,57.78
2023-02-11T08:36:56.960Z,57.43
2023-02-11T08:39:30.184Z,55.29
2023-02-11T08:42:03.206Z,54.84
2023-02-11T08:44:37.700Z,53.94
2023-02-11T08:47:11.165Z,52.74
2023-02-11T08:49:44.293Z,52.84
2023-02-11T08:52:17.353Z,52.62
2023-02-11T08:54:50.914Z,52.65
2023-02-11T08:57:24.336Z,52.21
2023-02-11T08:59:58.702Z,51.53
2023-02-11T09:02:31.997Z,52.56
2023-02-11T09:05:05.333Z,53.03
2023-02-11T09:07:38.478Z,53.42
2023-02-11T09:10:11.503Z,53.25
2023-02-11T09:12:46.160Z,52.04
2023-02-11T09:15:21.445Z,53.08
2023-02-11T09:17:54.423Z,52.68
2023-02-11T09:20:28.158Z,53.87
2023-02-11T09:23:01.291Z,54.05
2023-02-11T09:25:34.349Z,52.94
2023-02-11T09:28:07.218Z,52.73
2023-02-11T09:30:41.982Z,53.28
2023-02-11T09:33:15.634Z,53.35
2023-02-11T09:35:48.783Z,52.65
2023-02-11T09:38:22.024Z,52.05
2023-02-11T09:40:54.890Z,53.02
2023-02-11T09:43:32.270Z,53.32
2023-02-11T09:46:07.350Z,52.31
2023-02-11T09:48:42.755Z,51.02
2023-02-11T09:51:18.425Z,51.37
2023-02-11T09:53:55.695Z,51.53
2023-02-11T09:56:29.328Z,50.79
2023-02-11T09:59:02.284Z,50.84
2023-02-11T10:01:39.425Z,49.12
2023-02-11T10:04:15.571Z,50.12
2023-02-11T10:06:50.382Z,51.18
2023-02-11T10:09:30.153Z,51.15
2023-02-11T10:12:11.408Z,49.84
2023-02-11T10:15:05.771Z,50.13
2023-02-11T10:17:46.676Z,50.68
2023-02-11T10:20:24.811Z,49.40
2023-02-11T10:22:59.630Z,49.81
2023-02-11T10:25:35.596Z,50.30
2023-02-11T10:28:13.684Z,50.05
2023-02-11T10:30:59.403Z,49.97
2023-02-11T10:33:38.048Z,49.00
2023-02-11T10:36:12.310Z,48.72
2023-02-11T10:38:45.628Z,47.64
2023-02-11T10:41:21.158Z,48.15
2023-02-11T10:43:54.091Z,47.30
2023-02-11T10:46:30.695Z,48.00
2023-02-11T10:49:05.730Z,48.35
2023-02-11T10:51:38.701Z,48.47
2023-02-11T10:54:14.509Z,48.14
2023-02-11T10:56:50.066Z,47.77
2023-02-11T10:59:28.362Z,47.86
2023-02-11T11:02:02.626Z,48.18
2023-02-11T11:04:40.129Z,47.54
2023-02-11T11:07:14.521Z,46.88
2023-02-11T11:09:52.526Z,47.41
2023-02-11T11:12:35.200Z,48.55
2023-02-11T11:15:18.781Z,47.80
2023-02-11T11:17:52.924Z,48.63
2023-02-11T11:20:28.547Z,48.97
2023-02-11T11:23:18.570Z,48.64
2023-02-11T11:26:00.973Z,46.66
2023-02-11T11:28:39.016Z,47.53
2023-02-11T11:31:19.052Z,47.35
2023-02-11T11:33:53.278Z,47.58
2023-02-11T11:36:33.731Z,47.98
2023-02-11T11:39:18.595Z,47.44
2023-02-11T11:41:53.318Z,47.55
2023-02-11T11:44:27.848Z,47.94
2023-02-11T11:47:18.221Z,47.51
2023-02-11T11:49:57.052Z,47.53
2023-02-11T11:52:39.299Z,48.03
2023-02-11T11:55:17.324Z,47.46
2023-02-11T11:57:50.683Z,47.15
2023-02-11T12:00:27.669Z,46.70
2023-02-11T12:03:33.811Z,46.67
2023-02-11T12:06:19.148Z,44.45
2023-02-11T12:09:02.811Z,44.78
2023-02-11T12:11:43.292Z,44.92
2023-02-11T12:14:25.262Z,43.47
2023-02-11T12:17:03.345Z,43.44
2023-02-11T12:19:56.281Z,43.12
2023-02-11T12:22:39.356Z,43.12
2023-02-11T12:25:26.449Z,43.08
2023-02-11T12:28:17.036Z,42.27
2023-02-11T12:31:04.464Z,42.55
2023-02-11T12:33:50.167Z,42.01
2023-02-11T12:36:28.741Z,44.35
2023-02-11T12:39:07.765Z,42.86
2023-02-11T12:42:08.146Z,41.63
2023-02-11T12:44:47.123Z,39.23
2023-02-11T12:47:23.967Z,38.54
2023-02-11T12:50:10.310Z,39.41
2023-02-11T12:52:54.390Z,38.56
2023-02-11T12:55:29.324Z,37.73
2023-02-11T12:58:04.786Z,36.83
2023-02-11T13:00:41.715Z,37.57
2023-02-11T13:03:18.062Z,37.93
2023-02-11T13:05:53.867Z,37.68
2023-02-11T13:08:29.553Z,37.71
2023-02-11T13:11:04.811Z,35.36
2023-02-11T13:13:47.651Z,37.81
2023-02-11T13:16:25.377Z,36.83
2023-02-11T13:19:03.830Z,36.35
2023-02-11T13:21:48.490Z,36.43
2023-02-11T13:24:26.674Z,36.49
2023-02-11T13:27:06.153Z,33.50
2023-02-11T13:29:51.348Z,31.65
2023-02-11T13:32:24.353Z,30.97
2023-02-11T13:35:00.320Z,33.33
2023-02-11T13:37:37.500Z,34.69
2023-02-11T13:40:23.018Z,33.59
2023-02-11T13:42:57.437Z,32.83
2023-02-11T13:45:34.508Z,33.34
2023-02-11T13:48:10.095Z,31.39
2023-02-11T13:50:47.976Z,31.91
2023-02-11T13:53:22.841Z,34.92
2023-02-11T13:56:07.860Z,35.87
2023-02-11T13:58:48.266Z,36.00
2023-02-11T14:01:36.319Z,36.08
2023-02-11T14:04:41.299Z,36.32
2023-02-11T14:07:44.506Z,36.21
2023-02-11T14:10:36.200Z,34.11
2023-02-11T14:13:21.281Z,34.44
2023-02-11T14:16:13.565Z,35.10
2023-02-11T14:19:00.282Z,32.21
2023-02-11T14:21:36.844Z,33.93
2023-02-11T14:24:28.212Z,35.83
2023-02-11T14:27:05.051Z,36.09
2023-02-11T14:29:43.134Z,37.88
2023-02-11T14:32:20.772Z,37.85
2023-02-11T14:34:59.135Z,39.19
2023-02-11T14:37:39.337Z,37.17
2023-02-11T14:40:17.884Z,37.50
2023-02-11T14:42:51.867Z,38.31
2023-02-11T14:45:26.965Z,36.82
2023-02-11T14:48:04.649Z,36.22
2023-02-11T14:50:43.034Z,37.94
2023-02-11T14:53:19.348Z,35.21
2023-02-11T14:55:53.490Z,37.22
2023-02-11T14:58:27.837Z,36.28
2023-02-11T15:01:01.935Z,37.10
2023-02-11T15:03:36.569Z,37.84
2023-02-11T15:06:17.404Z,38.88
2023-02-11T15:08:53.860Z,38.78
2023-02-11T15:11:28.149Z,40.02
2023-02-11T15:14:07.491Z,40.63
2023-02-11T15:16:43.812Z,41.65
2023-02-11T15:19:21.085Z,41.56
2023-02-11T15:21:54.838Z,42.08
2023-02-11T15:24:30.868Z,43.22
2023-02-11T15:27:04.965Z,44.36
2023-02-11T15:29:39.297Z,46.10
2023-02-11T15:32:14.926Z,46.55
2023-02-11T15:34:49.447Z,46.88
2023-02-11T15:37:23.650Z,46.88
2023-02-11T15:40:10.004Z,46.21
2023-02-11T15:42:54.997Z,47.90
2023-02-11T15:45:31.931Z,47.57
2023-02-11T15:48:09.185Z,45.58
2023-02-11T15:50:43.250Z,45.46
2023-02-11T15:53:22.154Z,46.68
2023-02-11T15:56:00.647Z,46.24
2023-02-11T15:58:37.170Z,46.48
2023-02-11T16:01:11.353Z,46.14
2023-02-11T16:03:44.761Z,45.08
2023-02-11T16:06:19.559Z,45.68
2023-02-11T16:09:03.698Z,44.71
2023-02-11T16:11:54.028Z,44.77
2023-02-11T16:14:32.488Z,43.19
2023-02-11T16:17:07.117Z,43.88
2023-02-11T16:19:44.687Z,44.32
2023-02-11T16:22:19.581Z,43.33
2023-02-11T16:24:54.763Z,43.87
2023-02-11T16:27:30.560Z,43.96
2023-02-11T16:30:03.815Z,44.24
2023-02-11T16:32:38.566Z,44.90
2023-02-11T16:35:12.348Z,45.15
2023-02-11T16:37:45.809Z,44.09
2023-02-11T16:40:19.374Z,44.58
2023-02-11T16:42:53.828Z,45.50
2023-02-11T16:45:26.921Z,45.68
2023-02-11T16:48:00.153Z,45.53
2023-02-11T16:50:33.346Z,45.58
2023-02-11T16:53:07.307Z,45.88
2023-02-11T16:55:40.527Z,46.26
2023-02-11T16:58:15.537Z,46.36
2023-02-11T17:00:49.503Z,47.34
2023-02-11T17:03:24.161Z,46.63
2023-02-11T17:05:57.217Z,47.23
2023-02-11T17:08:30.222Z,47.31
2023-02-11T17:11:03.241Z,47.29
2023-02-11T17:13:39.611Z,47.55
2023-02-11T17:16:18.218Z,47.22
2023-02-11T17:18:51.156Z,47.47
2023-02-11T17:21:27.636Z,47.80
2023-02-11T17:24:02.718Z,48.19
2023-02-11T17:26:36.910Z,48.14
2023-02-11T17:29:12.565Z,49.19
2023-02-11T17:31:46.100Z,49.49
2023-02-11T17:34:19.076Z,49.46
2023-02-11T17:36:52.023Z,49.36
2023-02-11T17:39:25.022Z,50.27
2023-02-11T17:41:58.280Z,49.67
2023-02-11T17:44:32.961Z,50.54
2023-02-11T17:47:05.947Z,50.65
2023-02-11T17:49:39.134Z,50.27
2023-02-11T17:52:12.103Z,49.75
2023-02-11T17:54:45.368Z,50.51
2023-02-11T17:57:18.695Z,50.57
2023-02-11T17:59:53.344Z,50.30
2023-02-11T18:02:26.873Z,50.43
2023-02-11T18:05:00.043Z,51.00
2023-02-11T18:07:32.962Z,51.32
2023-02-11T18:10:06.906Z,51.68
2023-02-11T18:12:41.784Z,51.47
2023-02-11T18:15:16.275Z,51.92
2023-02-11T18:17:49.392Z,52.24
2023-02-11T18:20:22.685Z,51.91
2023-02-11T18:22:55.921Z,52.58
2023-02-11T18:25:29.962Z,53.06
2023-02-11T18:28:03.726Z,53.47
2023-02-11T18:30:38.031Z,53.27
2023-02-11T18:33:14.235Z,54.03
2023-02-11T18:35:49.282Z,53.85
2023-02-11T18:38:22.923Z,54.44
2023-02-11T18:40:58.388Z,55.20
2023-02-11T18:43:34.276Z,55.26
2023-02-11T18:46:10.023Z,55.41
2023-02-11T18:48:44.857Z,55.07
2023-02-11T18:51:19.174Z,55.08
2023-02-11T18:53:52.344Z,55.94
2023-02-11T18:56:27.698Z,55.49
2023-02-11T18:59:01.730Z,56.47
2023-02-11T19:01:36.896Z,55.87
2023-02-11T19:04:10.180Z,56.78
2023-02-11T19:06:43.649Z,57.01
2023-02-11T19:09:17.377Z,56.75
2023-02-11T19:11:51.277Z,57.41
2023-02-11T19:14:25.923Z,57.57
2023-02-11T19:17:02.212Z,57.37
2023-02-11T19:19:36.541Z,57.20
2023-02-11T19:22:10.897Z,57.88
2023-02-11T19:24:44.887Z,57.94
2023-02-11T19:27:18.018Z,58.00
2023-02-11T19:29:51.275Z,58.26
2023-02-11T19:32:25.854Z,58.41
2023-02-11T19:34:58.764Z,58.36
2023-02-11T19:37:31.996Z,58.71
2023-02-11T19:40:05.641Z,58.28
2023-02-11T19:42:38.775Z,58.76
2023-02-11T19:45:11.862Z,59.03
2023-02-11T19:47:46.204Z,59.08
2023-02-11T19:50:19.710Z,59.32
2023-02-11T19:52:52.847Z,59.57
2023-02-11T19:55:26.201Z,59.81
2023-02-11T19:57:59.872Z,59.70
2023-02-11T20:00:33.041Z,59.73
2023-02-11T20:03:08.141Z,60.18
2023-02-11T20:05:43.468Z,60.12
2023-02-11T20:08:18.575Z,59.86
2023-02-11T20:10:52.067Z,60.47
2023-02-11T20:13:26.019Z,60.53
2023-02-11T20:16:03.820Z,61.02
2023-02-11T20:18:38.626Z,61.09
2023-02-11T20:21:12.415Z,61.54
2023-02-11T20:23:46.621Z,61.14
2023-02-11T20:26:20.801Z,61.72
2023-02-11T20:28:54.622Z,61.83
2023-02-11T20:31:27.757Z,61.45
2023-02-11T20:34:02.966Z,61.24
2023-02-11T20:36:38.154Z,61.51
2023-02-11T20:39:17.053Z,62.23
2023-02-11T20:41:50.690Z,61.87
2023-02-11T20:44:24.134Z,61.95
2023-02-11T20:46:57.461Z,62.00
2023-02-11T20:49:32.070Z,62.12
2023-02-11T20:52:05.102Z,62.33
2023-02-11T20:54:38.541Z,62.13
2023-02-11T20:57:11.745Z,62.29
2023-02-11T20:59:44.621Z,62.97
2023-02-11T21:02:17.552Z,62.88
2023-02-11T21:04:52.115Z,62.65
2023-02-11T21:07:25.002Z,63.24
2023-02-11T21:09:58.381Z,63.10
2023-02-11T21:12:34.048Z,63.17
2023-02-11T21:15:09.645Z,63.36
2023-02-11T21:17:42.901Z,63.50
2023-02-11T21:20:17.435Z,63.51
2023-02-11T21:22:50.457Z,63.54
2023-02-11T21:25:23.314Z,63.35
2023-02-11T21:27:56.402Z,63.46
2023-02-11T21:30:29.893Z,63.42
2023-02-11T21:33:02.883Z,63.08
2023-02-11T21:35:37.740Z,62.86
2023-02-11T21:38:10.600Z,63.19
2023-02-11T21:40:44.020Z,63.13
2023-02-11T21:43:17.156Z,63.55
2023-02-11T21:45:51.384Z,63.90
2023-02-11T21:48:25.777Z,63.13
2023-02-11T21:51:01.834Z,63.33
2023-02-11T21:53:35.449Z,63.45
2023-02-11T21:56:09.848Z,63.36
2023-02-11T21:58:42.844Z,63.66
2023-02-11T22:01:17.299Z,63.99
2023-02-11T22:03:50.850Z,63.92
2023-02-11T22:06:27.270Z,63.84
2023-02-11T22:09:02.628Z,64.82
2023-02-11T22:11:35.747Z,64.57
2023-02-11T22:14:09.045Z,64.56
2023-02-11T22:16:44.760Z,64.51
2023-02-11T22:19:18.960Z,64.68
2023-02-11T22:21:53.332Z,64.75
2023-02-11T22:24:26.741Z,64.95
2023-02-11T22:26:59.826Z,65.17
2023-02-11T22:29:32.804Z,65.81
2023-02-11T22:32:06.244Z,65.38
2023-02-11T22:34:39.709Z,66.06
2023-02-11T22:37:15.095Z,65.59
2023-02-11T22:39:48.042Z,65.40
2023-02-11T22:42:21.218Z,65.51
2023-02-11T22:44:54.107Z,65.66
2023-02-11T22:47:27.123Z,65.17
2023-02-11T22:49:59.990Z,65.04
2023-02-11T22:52:35.683Z,65.72
2023-02-11T22:55:09.759Z,66.12
2023-02-11T22:57:43.046Z,65.64
2023-02-11T23:00:16.904Z,65.94
2023-02-11T23:02:50.786Z,65.67
2023-02-11T23:05:23.775Z,65.06
2023-02-11T23:07:58.557Z,65.27
2023-02-11T23:10:32.248Z,65.18
2023-02-11T23:13:05.771Z,65.22
2023-02-11T23:15:40.752Z,65.25
2023-02-11T23:18:14.701Z,65.72
2023-02-11T23:20:47.622Z,65.39
2023-02-11T23:23:22.172Z,65.70
2023-02-11T23:25:55.830Z,65.59
2023-02-11T23:28:29.038Z,66.22
2023-02-11T23:31:02.060Z,65.44
2023-02-11T23:33:38.544Z,65.37
2023-02-11T23:36:11.861Z,65.61
2023-02-11T23:38:46.520Z,66.00
2023-02-11T23:41:19.938Z,66.01
2023-02-11T23:43:53.997Z,66.20
2023-02-11T23:46:27.826Z,65.42
2023-02-11T23:49:01.244Z,65.92
2023-02-11T23:51:34.182Z,66.44
2023-02-11T23:54:08.689Z,66.35
2023-02-11T23:56:42.630Z,65.74
2023-02-11T23:59:15.935Z,66.33
